Time;durP1;ratioP1;P1;durP2;ratioP2;P2;SDS_P1;SDS_P2;PMS_P1;PMS_P2;Temp;Humidity;BMP_temperature;BMP_pressure;BME280_temperature;BME280_humidity;BME280_pressure;Samples;Min_cycle;Max_cycle;Signal;HPM_P1;HPM_P2
2022/12/14 04:03:40;;;;;;;43.70;19.92;;;-4.50;99.90;;;;;;6157492;23;20025;-73
2022/12/14 04:06:31;;;;;;;44.75;19.05;;;-4.50;99.90;;;;;;6015037;23;20054;-73
2022/12/14 04:08:59;;;;;;;45.67;20.55;;;-4.50;99.90;;;;;;6153340;23;20316;-73
2022/12/14 04:20:11;;;;;;;48.47;19.17;;;-4.60;99.90;;;;;;6101794;23;20029;-72
2022/12/14 04:22:42;;;;;;;50.08;21.17;;;-4.60;99.90;;;;;;6102302;23;20018;-73
2022/12/14 04:31:09;;;;;;;45.67;19.70;;;-4.70;99.90;;;;;;6127634;23;20478;-72
2022/12/14 04:33:48;;;;;;;53.97;21.38;;;-4.70;99.90;;;;;;6102259;23;20046;-73
2022/12/14 04:36:26;;;;;;;48.67;21.60;;;-4.70;99.90;;;;;;6101833;23;20014;-73
2022/12/14 04:39:06;;;;;;;47.53;20.40;;;-4.80;99.90;;;;;;6101724;23;20068;-73
2022/12/14 04:41:36;;;;;;;47.90;20.42;;;-4.90;99.90;;;;;;6128196;23;20332;-72
2022/12/14 04:44:22;;;;;;;48.42;20.50;;;-4.90;99.90;;;;;;6127609;23;20014;-73
2022/12/14 04:46:51;;;;;;;49.05;19.50;;;-4.90;99.90;;;;;;6127972;23;20018;-73
2022/12/14 04:49:33;;;;;;;47.35;18.88;;;-4.90;99.90;;;;;;6101500;23;20021;-74
2022/12/14 04:52:14;;;;;;;43.28;19.05;;;-5.00;99.90;;;;;;6101497;23;20406;-73
2022/12/14 04:54:51;;;;;;;45.38;18.35;;;-5.00;99.90;;;;;;6101579;23;20014;-73
2022/12/14 04:57:40;;;;;;;40.88;17.83;;;-5.00;99.90;;;;;;6127793;23;20013;-73
2022/12/14 05:00:06;;;;;;;47.72;20.17;;;-5.00;99.90;;;;;;6127780;23;20029;-74
2022/12/14 05:02:44;;;;;;;46.33;20.25;;;-5.10;99.90;;;;;;6076963;23;20138;-73
2022/12/14 05:05:33;;;;;;;45.85;19.60;;;-5.10;99.90;;;;;;6128126;23;20032;-73
2022/12/14 05:08:16;;;;;;;47.90;20.67;;;-5.10;99.90;;;;;;6127773;23;20089;-74
2022/12/14 05:10:55;;;;;;;50.03;18.83;;;-5.10;99.90;;;;;;6101239;23;20053;-74
2022/12/14 05:13:39;;;;;;;43.55;19.13;;;-5.10;99.90;;;;;;6127284;23;20014;-73
2022/12/14 05:16:06;;;;;;;45.17;18.20;;;-5.20;99.90;;;;;;6127609;23;20380;-72
2022/12/14 05:18:34;;;;;;;42.80;18.25;;;-5.20;99.90;;;;;;6101252;23;20014;-73
2022/12/14 05:20:59;;;;;;;49.88;20.92;;;-5.20;99.90;;;;;;6101112;23;20029;-73
2022/12/14 05:23:25;;;;;;;45.95;20.25;;;-5.20;99.90;;;;;;6101315;23;20341;-74
2022/12/14 05:25:50;;;;;;;44.22;19.05;;;-5.20;99.90;;;;;;6101562;23;20017;-72
2022/12/14 05:28:16;;;;;;;45.80;19.00;;;-5.20;99.90;;;;;;6127740;23;20010;-72
2022/12/14 05:30:42;;;;;;;44.70;18.17;;;-5.20;99.90;;;;;;6101160;23;20021;-73
2022/12/14 05:33:18;;;;;;;45.30;19.05;;;-5.20;99.90;;;;;;6101248;23;20073;-74
2022/12/14 05:35:44;;;;;;;42.83;19.05;;;-5.20;99.90;;;;;;6127543;23;20060;-73
2022/12/14 05:38:11;;;;;;;43.25;18.30;;;-5.30;99.90;;;;;;6101178;23;20077;-72
2022/12/14 05:40:38;;;;;;;44.88;19.75;;;-5.30;99.90;;;;;;6101171;23;20018;-72
2022/12/14 05:43:08;;;;;;;41.10;18.80;;;-5.30;99.90;;;;;;6127325;23;20018;-72
2022/12/14 05:45:33;;;;;;;44.75;19.27;;;-5.20;99.90;;;;;;6101946;23;20053;-72
2022/12/14 05:47:59;;;;;;;44.70;18.25;;;-5.20;99.90;;;;;;6126973;23;20014;-73
2022/12/14 05:50:25;;;;;;;40.50;18.48;;;-5.20;99.90;;;;;;6100861;23;20014;-72
2022/12/14 05:52:51;;;;;;;47.97;19.52;;;-5.30;99.90;;;;;;6100827;23;20057;-73
2022/12/14 05:55:17;;;;;;;41.03;18.63;;;-5.30;99.90;;;;;;6126772;23;20014;-71
2022/12/14 05:57:42;;;;;;;43.28;19.67;;;-5.40;99.90;;;;;;6126894;23;20009;-72
2022/12/14 06:00:09;;;;;;;43.35;18.30;;;-5.40;99.90;;;;;;6126785;23;20029;-71
2022/12/14 06:02:35;;;;;;;44.08;18.33;;;-5.40;99.90;;;;;;6075747;23;20097;-73
2022/12/14 06:05:00;;;;;;;47.50;18.92;;;-5.40;99.90;;;;;;6125695;23;20044;-72
2022/12/14 06:07:26;;;;;;;45.17;19.52;;;-5.40;99.90;;;;;;6099717;23;20436;-72
2022/12/14 06:09:51;;;;;;;43.85;18.33;;;-5.40;99.90;;;;;;6099697;23;20013;-73
2022/12/14 06:12:17;;;;;;;46.10;19.67;;;-5.40;99.90;;;;;;6125564;23;20380;-72
2022/12/14 06:14:42;;;;;;;44.97;19.15;;;-5.40;99.90;;;;;;6125700;23;20017;-72
2022/12/14 06:17:08;;;;;;;49.20;20.35;;;-5.40;99.90;;;;;;6125962;23;20366;-72
2022/12/14 06:19:34;;;;;;;47.20;19.52;;;-5.40;99.90;;;;;;6126052;23;20037;-73
2022/12/14 06:22:00;;;;;;;43.92;17.95;;;-5.40;99.90;;;;;;6125823;23;20029;-71
2022/12/14 06:24:25;;;;;;;49.33;19.45;;;-5.40;99.90;;;;;;6125523;23;20014;-72
2022/12/14 06:26:51;;;;;;;46.25;17.83;;;-5.40;99.90;;;;;;6099690;23;20064;-71
2022/12/14 06:29:18;;;;;;;46.33;19.02;;;-5.40;99.90;;;;;;6099497;23;20072;-73
2022/12/14 06:31:44;;;;;;;42.00;18.13;;;-5.30;99.90;;;;;;6125287;23;20513;-72
2022/12/14 06:34:10;;;;;;;49.63;19.92;;;-5.30;99.90;;;;;;6099833;23;20045;-72
2022/12/14 06:36:38;;;;;;;45.22;19.65;;;-5.30;99.90;;;;;;6099363;23;20014;-73
2022/12/14 06:39:13;;;;;;;46.92;19.55;;;-5.30;99.90;;;;;;6125712;23;20010;-71
2022/12/14 06:41:39;;;;;;;44.50;18.52;;;-5.30;99.90;;;;;;6125374;23;20013;-72
2022/12/14 06:44:08;;;;;;;45.15;20.13;;;-5.40;99.90;;;;;;6125385;23;20080;-72
2022/12/14 06:46:35;;;;;;;46.15;18.60;;;-5.40;99.90;;;;;;6099432;23;20014;-73
2022/12/14 06:49:01;;;;;;;44.47;19.35;;;-5.40;99.90;;;;;;6099372;23;20417;-72
2022/12/14 06:51:26;;;;;;;50.72;19.42;;;-5.50;99.90;;;;;;6125176;23;20017;-74
2022/12/14 06:53:53;;;;;;;48.05;18.48;;;-5.50;99.90;;;;;;6125728;23;20014;-71
2022/12/14 06:56:21;;;;;;;45.97;19.50;;;-5.50;99.90;;;;;;6125355;23;20013;-73
2022/12/14 06:58:47;;;;;;;43.00;18.77;;;-5.50;99.90;;;;;;6125429;23;20456;-71
2022/12/14 07:01:17;;;;;;;43.20;19.92;;;-5.50;99.90;;;;;;6099351;23;20396;-72
2022/12/14 07:03:47;;;;;;;42.35;18.00;;;-5.50;99.90;;;;;;6125649;23;20018;-74
2022/12/14 07:06:13;;;;;;;45.72;19.88;;;-5.50;99.90;;;;;;6099598;23;20477;-74
2022/12/14 07:08:39;;;;;;;41.33;17.65;;;-5.50;99.90;;;;;;6125845;23;20021;-75
2022/12/14 07:11:07;;;;;;;48.03;18.63;;;-5.50;99.90;;;;;;6099697;23;20452;-75
2022/12/14 07:13:33;;;;;;;46.78;18.70;;;-5.50;99.90;;;;;;6125706;23;20018;-75
2022/12/14 07:15:59;;;;;;;46.13;19.80;;;-5.60;99.90;;;;;;6099659;23;20818;-75
2022/12/14 07:18:27;;;;;;;48.38;18.35;;;-5.60;99.90;;;;;;6099566;23;20085;-74
2022/12/14 07:20:59;;;;;;;47.72;18.75;;;-5.60;99.90;;;;;;6075395;23;20049;-75
2022/12/14 07:23:27;;;;;;;47.90;19.23;;;-5.60;99.90;;;;;;6126385;23;20081;-76
2022/12/14 07:25:53;;;;;;;43.10;18.08;;;-5.60;99.90;;;;;;6127041;23;20017;-74
2022/12/14 07:28:19;;;;;;;45.97;18.63;;;-5.60;99.90;;;;;;6128848;23;20006;-75
2022/12/14 07:30:45;;;;;;;47.42;18.58;;;-5.60;99.90;;;;;;6102381;23;20021;-75
2022/12/14 07:33:11;;;;;;;44.67;18.48;;;-5.60;99.90;;;;;;6103784;23;20018;-73
2022/12/14 07:35:36;;;;;;;52.50;19.05;;;-5.60;99.90;;;;;;6102944;23;20301;-75
2022/12/14 07:38:02;;;;;;;43.55;18.30;;;-5.70;99.90;;;;;;6128480;23;20010;-75
2022/12/14 07:40:32;;;;;;;45.97;18.35;;;-5.70;99.90;;;;;;6078142;23;20096;-76
2022/12/14 07:42:58;;;;;;;42.50;17.98;;;-5.60;99.90;;;;;;6128832;23;20085;-75
2022/12/14 07:45:24;;;;;;;52.38;19.83;;;-5.60;99.90;;;;;;6102621;23;20116;-74
2022/12/14 07:47:50;;;;;;;45.47;18.52;;;-5.60;99.90;;;;;;6078370;23;20104;-75
2022/12/14 07:50:16;;;;;;;47.15;18.17;;;-5.60;99.90;;;;;;6128402;23;20014;-74
2022/12/14 07:52:41;;;;;;;45.50;20.08;;;-5.50;99.90;;;;;;6103684;23;20070;-75
2022/12/14 07:55:07;;;;;;;44.83;19.60;;;-5.50;99.90;;;;;;6129323;23;20084;-76
2022/12/14 07:57:34;;;;;;;46.10;18.92;;;-5.50;99.90;;;;;;6128250;23;20089;-75
2022/12/14 08:00:00;;;;;;;47.75;18.75;;;-5.50;99.90;;;;;;6102227;23;20024;-76
2022/12/14 08:02:25;;;;;;;44.95;18.15;;;-5.50;99.90;;;;;;6102583;23;20054;-74
2022/12/14 08:04:51;;;;;;;41.30;17.63;;;-5.50;99.90;;;;;;6102063;23;20514;-73
2022/12/14 08:07:17;;;;;;;41.67;17.55;;;-5.50;99.90;;;;;;6127965;23;20020;-74
2022/12/14 08:09:43;;;;;;;43.70;18.20;;;-5.60;99.90;;;;;;6101874;23;20092;-74
2022/12/14 08:12:08;;;;;;;43.72;18.25;;;-5.60;99.90;;;;;;6127934;23;20018;-76
2022/12/14 08:14:34;;;;;;;49.55;18.92;;;-5.60;99.90;;;;;;6078341;23;20014;-74
2022/12/14 08:17:00;;;;;;;44.90;18.17;;;-5.60;99.90;;;;;;6128210;23;20068;-74
2022/12/14 08:19:25;;;;;;;47.33;18.60;;;-5.70;99.90;;;;;;6101973;23;20014;-74
2022/12/14 08:21:51;;;;;;;47.85;17.77;;;-5.60;99.90;;;;;;6101736;23;20024;-75
2022/12/14 08:24:16;;;;;;;46.90;17.55;;;-5.70;99.90;;;;;;6077786;23;20100;-75
2022/12/14 08:26:42;;;;;;;46.35;17.67;;;-5.60;99.90;;;;;;6078152;23;20021;-75
2022/12/14 08:29:10;;;;;;;42.85;18.05;;;-5.60;99.90;;;;;;6127889;23;20010;-74
2022/12/14 08:31:36;;;;;;;51.45;19.30;;;-5.60;99.90;;;;;;6127896;23;20022;-75
2022/12/14 08:34:02;;;;;;;45.35;19.05;;;-5.60;99.90;;;;;;6127840;23;20403;-76
2022/12/14 08:36:33;;;;;;;51.20;18.58;;;-5.50;99.90;;;;;;6102275;23;20017;-76
2022/12/14 08:39:04;;;;;;;50.53;19.58;;;-5.40;99.90;;;;;;6101911;23;20022;-78
2022/12/14 08:41:31;;;;;;;49.63;19.23;;;-5.20;99.90;;;;;;6127171;23;20025;-74
2022/12/14 08:43:58;;;;;;;50.63;20.55;;;-5.00;99.90;;;;;;6101534;23;20014;-73
2022/12/14 08:46:25;;;;;;;50.95;19.75;;;-4.80;99.90;;;;;;6128000;23;20013;-74
2022/12/14 08:48:53;;;;;;;47.65;19.05;;;-4.60;99.90;;;;;;6127435;23;20025;-74
2022/12/14 08:51:20;;;;;;;57.95;21.30;;;-4.40;99.90;;;;;;6077378;23;20018;-73
2022/12/14 08:53:46;;;;;;;54.15;22.38;;;-4.30;99.90;;;;;;6127831;23;20014;-74
2022/12/14 08:56:25;;;;;;;51.72;21.27;;;-4.10;99.90;;;;;;6101792;23;20472;-74
2022/12/14 08:58:51;;;;;;;48.55;19.05;;;-4.10;99.90;;;;;;6101578;23;20017;-73
2022/12/14 09:01:27;;;;;;;47.50;20.17;;;-4.10;99.90;;;;;;6127145;23;20463;-75
2022/12/14 09:03:52;;;;;;;55.08;21.50;;;-4.20;99.90;;;;;;6128116;23;20065;-74
2022/12/14 09:06:21;;;;;;;54.40;19.33;;;-4.30;99.90;;;;;;6101770;23;20440;-74
2022/12/14 09:08:47;;;;;;;43.60;18.98;;;-4.30;99.90;;;;;;6101566;23;20070;-73
2022/12/14 09:11:15;;;;;;;43.42;18.25;;;-4.40;99.90;;;;;;6101153;23;20049;-74
2022/12/14 09:13:42;;;;;;;46.45;20.63;;;-4.40;99.90;;;;;;6101238;23;20026;-74
2022/12/14 09:16:12;;;;;;;55.00;21.30;;;-4.40;99.90;;;;;;6127462;23;20081;-74
2022/12/14 09:18:38;;;;;;;50.50;21.38;;;-4.50;99.90;;;;;;6127515;23;20333;-75
2022/12/14 09:21:04;;;;;;;57.50;22.15;;;-4.40;99.90;;;;;;6127376;23;20021;-75
2022/12/14 09:23:31;;;;;;;44.53;18.15;;;-4.40;99.90;;;;;;6126988;23;20021;-75
2022/12/14 09:25:58;;;;;;;43.97;18.23;;;-4.40;99.90;;;;;;6127327;23;20085;-74
2022/12/14 09:28:25;;;;;;;47.42;18.00;;;-4.40;99.90;;;;;;6127101;23;20010;-74
2022/12/14 09:30:55;;;;;;;42.92;19.25;;;-4.50;99.90;;;;;;6100757;23;20014;-75
2022/12/14 09:33:21;;;;;;;46.85;19.35;;;-4.50;99.90;;;;;;6100989;23;20025;-75
2022/12/14 09:35:47;;;;;;;48.10;19.17;;;-4.50;99.90;;;;;;6101204;23;20018;-73
2022/12/14 09:38:13;;;;;;;46.97;19.45;;;-4.50;99.90;;;;;;6101421;23;20033;-74
2022/12/14 09:40:45;;;;;;;45.28;19.17;;;-4.50;99.90;;;;;;6127285;23;20402;-74
2022/12/14 09:43:27;;;;;;;50.83;19.35;;;-4.50;99.90;;;;;;6101879;23;20101;-74
2022/12/14 09:45:57;;;;;;;48.75;19.88;;;-4.40;99.90;;;;;;6101262;23;20018;-75
2022/12/14 09:48:24;;;;;;;52.13;20.45;;;-4.40;99.90;;;;;;6127457;23;20014;-75
2022/12/14 09:50:51;;;;;;;51.33;20.23;;;-4.30;99.90;;;;;;6100683;23;20057;-74
2022/12/14 09:53:19;;;;;;;50.60;21.30;;;-4.30;99.90;;;;;;6101121;23;20014;-74
2022/12/14 09:55:56;;;;;;;47.78;20.15;;;-4.20;99.90;;;;;;6100667;23;20502;-74
2022/12/14 09:58:23;;;;;;;51.17;19.88;;;-4.20;99.90;;;;;;6126915;23;20014;-74
2022/12/14 10:01:31;;;;;;;49.05;19.95;;;-4.10;99.90;;;;;;6100563;23;20014;-73
2022/12/14 10:04:23;;;;;;;48.17;20.10;;;-4.10;99.90;;;;;;6076810;23;20436;-74
2022/12/14 10:07:03;;;;;;;47.38;19.88;;;-4.00;99.90;;;;;;6100958;23;20025;-74
2022/12/14 10:09:47;;;;;;;48.58;20.35;;;-3.90;99.90;;;;;;6101302;23;20018;-75
2022/12/14 10:12:43;;;;;;;47.80;19.20;;;-3.80;99.90;;;;;;6101711;23;20076;-75
2022/12/14 10:15:31;;;;;;;40.90;17.77;;;-3.70;99.90;;;;;;6128479;23;20081;-74
2022/12/14 10:18:05;;;;;;;45.75;18.70;;;-3.60;99.90;;;;;;6128204;23;20064;-73
2022/12/14 10:21:01;;;;;;;41.85;17.90;;;-3.50;99.90;;;;;;6101467;23;20029;-75
2022/12/14 10:23:27;;;;;;;47.90;18.42;;;-3.40;99.90;;;;;;6127950;23;20387;-72
2022/12/14 10:25:59;;;;;;;43.28;18.20;;;-3.30;99.90;;;;;;6101677;23;20336;-71
2022/12/14 10:28:37;;;;;;;41.90;18.02;;;-3.20;99.90;;;;;;6101506;23;20388;-72
2022/12/14 10:31:08;;;;;;;48.10;19.05;;;-3.10;99.90;;;;;;6127170;23;20081;-73
2022/12/14 10:33:37;;;;;;;44.70;18.98;;;-3.00;99.90;;;;;;6100619;23;20515;-74
2022/12/14 10:36:29;;;;;;;45.33;17.98;;;-2.90;99.90;;;;;;6126747;23;20057;-74
2022/12/14 10:39:00;;;;;;;37.38;16.45;;;-2.80;99.90;;;;;;6077255;23;20009;-74
2022/12/14 10:41:35;;;;;;;37.63;16.58;;;-2.70;99.90;;;;;;6100281;23;20017;-74
2022/12/14 10:44:05;;;;;;;33.92;15.63;;;-2.50;99.90;;;;;;6098725;23;20648;-74
2022/12/14 10:47:09;;;;;;;36.13;15.82;;;-2.40;99.90;;;;;;6098218;23;20018;-74
2022/12/14 10:49:54;;;;;;;38.60;16.38;;;-2.20;99.90;;;;;;6099118;23;20448;-74
2022/12/14 10:52:24;;;;;;;37.53;16.58;;;-2.10;99.90;;;;;;6125530;23;20097;-73
2022/12/14 10:54:54;;;;;;;31.45;14.63;;;-1.90;99.90;;;;;;6099397;23;20018;-74
2022/12/14 10:57:25;;;;;;;34.53;15.57;;;-1.70;99.90;;;;;;6098915;23;20021;-74
2022/12/14 10:59:51;;;;;;;33.25;14.63;;;-1.60;99.90;;;;;;6100113;23;20411;-73
2022/12/14 11:02:20;;;;;;;31.83;14.57;;;-1.40;99.90;;;;;;6076342;23;20405;-75
2022/12/14 11:04:50;;;;;;;38.95;15.45;;;-1.30;99.90;;;;;;6076310;23;20017;-74
2022/12/14 11:07:19;;;;;;;28.90;13.93;;;-1.20;99.90;;;;;;6076352;23;20026;-75
2022/12/14 11:09:45;;;;;;;27.80;13.40;;;-1.00;99.90;;;;;;6100136;23;20013;-75
2022/12/14 11:12:23;;;;;;;31.35;14.43;;;-0.80;99.90;;;;;;6126135;23;20455;-74
2022/12/14 11:15:00;;;;;;;35.20;14.88;;;-0.60;99.90;;;;;;6100118;23;20033;-74
2022/12/14 11:17:41;;;;;;;30.52;14.13;;;-0.50;99.90;;;;;;6076089;23;20017;-75
2022/12/14 11:20:22;;;;;;;34.35;15.10;;;-0.30;99.90;;;;;;6100206;23;20069;-75
2022/12/14 11:22:51;;;;;;;32.63;14.77;;;-0.10;99.90;;;;;;6100270;23;20045;-75
2022/12/14 11:25:32;;;;;;;32.85;15.68;;;0.00;99.90;;;;;;6100313;23;20014;-75
2022/12/14 11:28:00;;;;;;;33.65;16.13;;;0.10;99.90;;;;;;6126082;23;20021;-74
2022/12/14 11:30:27;;;;;;;29.65;15.10;;;0.20;99.90;;;;;;6100130;23;20018;-75
2022/12/14 11:32:54;;;;;;;31.48;14.70;;;0.40;99.90;;;;;;6100204;23;20014;-75
2022/12/14 11:35:20;;;;;;;28.38;14.30;;;0.50;99.90;;;;;;6100181;23;20089;-75
2022/12/14 11:37:49;;;;;;;32.70;15.50;;;0.60;99.90;;;;;;6126714;23;20014;-75
2022/12/14 11:40:26;;;;;;;29.38;14.60;;;0.80;99.90;;;;;;6125819;23;20325;-74
2022/12/14 11:42:58;;;;;;;32.35;14.40;;;0.90;99.90;;;;;;6100186;23;20018;-74
2022/12/14 11:45:24;;;;;;;33.88;15.40;;;1.00;99.90;;;;;;6127002;23;20021;-76
2022/12/14 11:48:14;;;;;;;37.88;15.70;;;1.10;99.90;;;;;;6126352;23;20343;-75
2022/12/14 11:50:41;;;;;;;31.85;13.63;;;1.30;99.90;;;;;;6099931;23;20017;-75
2022/12/14 11:53:13;;;;;;;31.10;14.80;;;1.40;99.90;;;;;;6126567;23;20014;-75
2022/12/14 11:55:46;;;;;;;32.50;15.88;;;1.50;99.90;;;;;;6126890;23;20037;-75
2022/12/14 11:58:19;;;;;;;33.67;17.30;;;1.60;99.90;;;;;;6100036;23;20404;-77
2022/12/14 12:01:06;;;;;;;35.00;16.73;;;1.70;99.90;;;;;;6099973;23;20371;-77
2022/12/14 12:03:40;;;;;;;31.02;15.48;;;1.80;99.90;;;;;;6100171;23;20456;-76
2022/12/14 12:06:10;;;;;;;32.67;15.38;;;1.70;99.90;;;;;;6100266;23;20049;-76
2022/12/14 12:08:38;;;;;;;33.53;16.25;;;1.80;99.90;;;;;;6100261;23;20010;-77
2022/12/14 12:11:21;;;;;;;32.25;15.05;;;1.70;99.90;;;;;;6099855;23;20380;-76
2022/12/14 12:13:51;;;;;;;31.55;15.63;;;1.60;99.90;;;;;;6101405;23;20014;-76
2022/12/14 12:16:20;;;;;;;27.20;12.52;;;1.50;99.90;;;;;;6128100;23;20014;-77
2022/12/14 12:19:06;;;;;;;27.00;13.45;;;1.60;99.90;;;;;;6128280;23;20077;-77
2022/12/14 12:21:37;;;;;;;29.50;13.82;;;1.50;99.90;;;;;;6128006;23;20020;-76
2022/12/14 12:24:26;;;;;;;23.83;12.15;;;1.60;99.90;;;;;;6078068;23;20085;-76
2022/12/14 12:27:02;;;;;;;25.33;11.80;;;1.60;99.90;;;;;;6077979;23;20022;-76
2022/12/14 12:29:30;;;;;;;;;;;1.70;99.90;;;;;;6078291;23;20445;-76
2022/12/14 12:32:09;;;;;;;23.05;11.10;;;1.70;99.90;;;;;;6128163;23;19945;-77
2022/12/14 12:34:55;;;;;;;19.08;8.07;;;1.80;99.90;;;;;;6128122;23;20022;-77
2022/12/14 12:37:33;;;;;;;20.77;9.75;;;2.00;99.90;;;;;;6101769;23;20022;-77
2022/12/14 12:40:12;;;;;;;25.23;12.48;;;2.20;99.90;;;;;;6101791;23;20057;-78
2022/12/14 12:42:51;;;;;;;26.63;12.68;;;2.30;99.90;;;;;;6127856;23;20034;-75
2022/12/14 12:45:26;;;;;;;25.38;12.82;;;2.40;99.90;;;;;;6102058;23;20025;-78
2022/12/14 12:48:01;;;;;;;25.65;12.48;;;2.50;99.90;;;;;;6077839;23;20340;-77
2022/12/14 12:50:35;;;;;;;23.85;12.02;;;2.70;99.90;;;;;;6101716;23;20009;-76
2022/12/14 12:53:15;;;;;;;22.88;11.13;;;2.70;99.90;;;;;;6101836;23;20425;-78
2022/12/14 12:55:52;;;;;;;23.60;11.32;;;2.80;99.90;;;;;;6101839;23;20014;-77
2022/12/14 12:58:26;;;;;;;22.42;11.32;;;2.90;99.90;;;;;;6101868;23;20076;-78
2022/12/14 13:00:56;;;;;;;21.80;10.65;;;3.30;99.90;;;;;;6102237;23;20021;-78
2022/12/14 13:03:31;;;;;;;22.15;10.70;;;3.70;99.90;;;;;;6102689;23;20026;-80
2022/12/14 13:06:10;;;;;;;25.17;11.00;;;3.90;99.90;;;;;;6128559;23;20082;-80
2022/12/14 13:08:38;;;;;;;22.35;11.63;;;3.90;99.90;;;;;;6128117;23;20017;-78
2022/12/14 13:11:14;;;;;;;22.10;12.23;;;3.90;99.90;;;;;;6101736;23;20436;-78
2022/12/14 13:13:44;;;;;;;20.10;11.13;;;4.10;99.90;;;;;;6101844;23;20014;-79
2022/12/14 13:16:14;;;;;;;21.33;11.52;;;4.30;99.90;;;;;;6101541;23;20080;-78
2022/12/14 13:18:44;;;;;;;20.95;11.07;;;4.30;99.90;;;;;;6101509;23;20500;-79
2022/12/14 13:21:50;;;;;;;20.17;10.40;;;4.20;99.90;;;;;;6101621;23;20021;-79
2022/12/14 13:24:19;;;;;;;24.55;11.23;;;4.00;99.90;;;;;;6010102;23;20454;-77
2022/12/14 13:27:09;;;;;;;24.38;12.38;;;4.30;99.90;;;;;;6009864;23;20024;-77
2022/12/14 13:30:00;;;;;;;25.83;12.13;;;4.30;99.90;;;;;;6072508;23;20339;-78
2022/12/14 13:33:22;;;;;;;24.23;12.18;;;4.10;99.90;;;;;;6127410;23;20389;-78
2022/12/14 13:36:11;;;;;;;26.50;12.60;;;3.70;99.90;;;;;;5976352;23;20012;-77
2022/12/14 13:38:54;;;;;;;26.45;12.73;;;3.60;99.90;;;;;;6102348;23;20396;-77
2022/12/14 13:41:20;;;;;;;27.80;12.77;;;4.00;99.90;;;;;;6127643;23;20013;-77
2022/12/14 13:43:54;;;;;;;26.70;12.93;;;4.30;99.90;;;;;;6127337;23;20020;-77
2022/12/14 13:46:23;;;;;;;21.95;11.82;;;4.30;99.90;;;;;;6101420;23;20022;-76
2022/12/14 13:48:53;;;;;;;25.05;12.73;;;4.10;99.90;;;;;;6078069;23;20014;-77
2022/12/14 13:51:33;;;;;;;24.05;12.45;;;3.90;99.90;;;;;;6127354;23;20040;-78
2022/12/14 13:54:01;;;;;;;25.65;13.23;;;3.60;99.90;;;;;;6127229;23;20022;-77
2022/12/14 13:56:35;;;;;;;26.17;11.95;;;3.30;99.90;;;;;;6101176;23;20025;-77
2022/12/14 13:59:23;;;;;;;23.63;12.60;;;3.10;99.90;;;;;;6077233;23;20021;-76
2022/12/14 14:01:50;;;;;;;26.88;13.05;;;3.10;99.90;;;;;;6106458;23;20010;-77
2022/12/14 14:04:17;;;;;;;27.15;13.68;;;3.40;99.90;;;;;;6101181;23;20400;-75
2022/12/14 14:06:48;;;;;;;26.08;13.05;;;3.80;99.90;;;;;;6101083;23;20341;-78
2022/12/14 14:09:27;;;;;;;25.25;13.55;;;4.10;99.90;;;;;;6127931;23;20010;-78
2022/12/14 14:12:27;;;;;;;27.52;13.48;;;4.20;99.90;;;;;;6100863;23;20021;-77
2022/12/14 14:14:56;;;;;;;26.33;12.27;;;4.20;99.90;;;;;;6118414;23;20444;-78
2022/12/14 14:17:36;;;;;;;26.92;14.50;;;4.00;99.90;;;;;;6101086;23;20010;-77
2022/12/14 14:20:24;;;;;;;25.85;12.68;;;3.50;99.90;;;;;;6127188;23;20010;-78
2022/12/14 14:23:11;;;;;;;27.85;13.77;;;3.00;99.90;;;;;;6127228;23;20029;-78
2022/12/14 14:25:51;;;;;;;23.52;12.88;;;2.50;99.90;;;;;;6076946;23;20348;-76
2022/12/14 14:28:19;;;;;;;25.20;13.50;;;2.20;99.90;;;;;;6127298;23;20082;-76
2022/12/14 14:30:52;;;;;;;28.65;14.32;;;1.80;99.90;;;;;;6127001;23;20010;-76
2022/12/14 14:33:41;;;;;;;27.35;13.07;;;1.50;99.90;;;;;;6100831;23;20054;-77
2022/12/14 14:36:32;;;;;;;30.13;13.75;;;1.30;99.90;;;;;;6126751;23;20016;-77
2022/12/14 14:39:02;;;;;;;28.90;12.73;;;1.10;99.90;;;;;;6127133;23;20020;-77
2022/12/14 14:41:36;;;;;;;26.52;13.40;;;0.90;99.90;;;;;;6076764;23;20022;-77
2022/12/14 14:44:14;;;;;;;32.88;14.15;;;0.70;99.90;;;;;;6127429;23;20010;-77
2022/12/14 14:46:47;;;;;;;27.38;14.13;;;0.50;99.90;;;;;;6126929;23;20010;-75
2022/12/14 14:49:27;;;;;;;26.83;13.10;;;0.40;99.90;;;;;;6100703;23;20464;-77
2022/12/14 14:51:53;;;;;;;26.98;13.45;;;0.20;99.90;;;;;;6126863;23;20384;-77
2022/12/14 14:54:18;;;;;;;28.65;13.43;;;0.10;99.90;;;;;;6076688;23;20014;-77
2022/12/14 14:56:46;;;;;;;29.63;14.65;;;0.00;99.90;;;;;;6076738;23;20048;-77
2022/12/14 14:59:17;;;;;;;34.63;15.30;;;0.00;99.90;;;;;;6126859;23;20045;-77
2022/12/14 15:01:56;;;;;;;30.23;15.45;;;-0.20;99.90;;;;;;6100674;23;20017;-77
2022/12/14 15:04:43;;;;;;;31.55;15.50;;;-0.20;99.90;;;;;;6076304;23;20013;-76
2022/12/14 15:07:22;;;;;;;31.42;14.80;;;-0.30;99.90;;;;;;6100577;23;20432;-77
2022/12/14 15:09:56;;;;;;;32.95;14.63;;;-0.40;99.90;;;;;;6100692;23;20506;-77
2022/12/14 15:12:31;;;;;;;31.27;14.98;;;-0.40;99.90;;;;;;6126761;23;20014;-78
2022/12/14 15:15:15;;;;;;;33.00;16.50;;;-0.50;99.90;;;;;;6100711;23;20053;-77
2022/12/14 15:17:41;;;;;;;35.53;17.90;;;-0.50;99.90;;;;;;6126526;23;20014;-76
2022/12/14 15:20:28;;;;;;;31.23;14.77;;;-0.60;99.90;;;;;;6100804;23;20137;-77
2022/12/14 15:22:55;;;;;;;36.13;15.27;;;-0.60;99.90;;;;;;6100290;23;20022;-77
2022/12/14 15:25:30;;;;;;;33.17;14.65;;;-0.70;99.90;;;;;;6076277;23;20518;-77
2022/12/14 15:28:06;;;;;;;31.88;14.85;;;-0.70;99.90;;;;;;6100603;23;20321;-77
2022/12/14 15:30:33;;;;;;;31.77;15.15;;;-0.80;99.90;;;;;;6100397;23;20436;-76
2022/12/14 15:33:24;;;;;;;26.15;13.48;;;-0.90;99.90;;;;;;6100458;23;20356;-76
2022/12/14 15:35:50;;;;;;;35.25;15.63;;;-0.90;99.90;;;;;;6116124;23;20020;-74
2022/12/14 15:38:23;;;;;;;31.17;14.30;;;-1.00;99.90;;;;;;6132688;23;20010;-71
2022/12/14 15:41:04;;;;;;;35.90;15.82;;;-1.10;99.90;;;;;;6077788;23;20022;-76
2022/12/14 15:43:30;;;;;;;32.50;14.68;;;-1.20;99.90;;;;;;6101031;23;20141;-76
2022/12/14 15:45:59;;;;;;;41.00;16.30;;;-1.20;99.90;;;;;;6102136;23;20018;-76
2022/12/14 15:48:29;;;;;;;32.35;15.23;;;-1.30;99.90;;;;;;6080088;23;20010;-76
2022/12/14 15:51:02;;;;;;;31.55;14.27;;;-1.40;99.90;;;;;;6102920;23;20388;-77
2022/12/14 15:53:49;;;;;;;34.90;14.88;;;-1.40;99.90;;;;;;6128740;23;20029;-77
2022/12/14 15:56:29;;;;;;;33.63;15.35;;;-1.50;99.90;;;;;;6102805;23;20096;-76
2022/12/14 15:58:57;;;;;;;29.85;14.75;;;-1.50;99.90;;;;;;6103272;23;20025;-75
2022/12/14 16:01:36;;;;;;;34.63;14.13;;;-1.50;99.90;;;;;;6128759;23;20021;-76
2022/12/14 16:04:06;;;;;;;35.25;15.50;;;-1.50;99.90;;;;;;6129458;23;20021;-76
2022/12/14 16:06:37;;;;;;;36.35;15.32;;;-1.60;99.90;;;;;;6078911;23;20025;-76
2022/12/14 16:09:21;;;;;;;62.40;17.83;;;-1.60;99.90;;;;;;6102953;23;20046;-76
2022/12/14 16:11:50;;;;;;;34.03;15.68;;;-1.70;99.90;;;;;;6128985;23;20096;-77
2022/12/14 16:14:44;;;;;;;31.88;15.00;;;-1.70;99.90;;;;;;6128456;23;20017;-77
2022/12/14 16:17:19;;;;;;;31.75;14.80;;;-1.80;99.90;;;;;;6128515;23;20104;-76
2022/12/14 16:20:00;;;;;;;34.05;15.13;;;-1.80;99.90;;;;;;6102354;23;20014;-77
2022/12/14 16:22:31;;;;;;;36.05;16.98;;;-1.90;99.90;;;;;;6128010;23;20467;-76
2022/12/14 16:25:08;;;;;;;32.45;15.30;;;-1.90;99.90;;;;;;6102066;23;20380;-77
2022/12/14 16:27:41;;;;;;;39.67;17.15;;;-2.00;99.90;;;;;;6102284;23;20057;-77
2022/12/14 16:30:24;;;;;;;35.13;16.15;;;-2.00;99.90;;;;;;6128285;23;20006;-76
2022/12/14 16:33:06;;;;;;;34.75;16.27;;;-2.10;99.90;;;;;;6101926;23;20051;-77
2022/12/14 16:35:34;;;;;;;40.80;16.52;;;-2.10;99.90;;;;;;6128036;23;20006;-76
2022/12/14 16:38:06;;;;;;;34.50;15.88;;;-2.20;99.90;;;;;;6127769;23;20081;-77
2022/12/14 16:40:36;;;;;;;39.67;16.90;;;-2.20;99.90;;;;;;6101942;23;20022;-76
2022/12/14 16:43:03;;;;;;;38.70;16.73;;;-2.20;99.90;;;;;;6127851;23;20006;-77
2022/12/14 16:45:41;;;;;;;35.45;16.33;;;-2.20;99.90;;;;;;6101799;23;20444;-75
2022/12/14 16:48:14;;;;;;;35.72;15.98;;;-2.20;99.90;;;;;;6101780;23;20380;-76
2022/12/14 16:50:40;;;;;;;36.70;16.58;;;-2.30;99.90;;;;;;6127824;23;20056;-76
2022/12/14 16:53:19;;;;;;;33.33;15.63;;;-2.30;99.90;;;;;;6102283;23;20018;-81
2022/12/14 16:56:03;;;;;;;41.45;16.55;;;-2.30;99.90;;;;;;6128662;23;20017;-76
2022/12/14 16:58:30;;;;;;;38.55;16.70;;;-2.40;99.90;;;;;;6077229;23;20010;-73
2022/12/14 17:01:00;;;;;;;35.50;16.00;;;-2.30;99.90;;;;;;6101612;23;20050;-75
2022/12/14 17:03:28;;;;;;;43.45;17.75;;;-2.40;99.90;;;;;;6102930;23;20020;-76
2022/12/14 17:05:58;;;;;;;32.22;15.60;;;-2.30;99.90;;;;;;6128274;23;20010;-76
2022/12/14 17:08:23;;;;;;;36.03;14.77;;;-2.40;99.90;;;;;;6127885;23;20010;-74
2022/12/14 17:10:49;;;;;;;37.13;15.85;;;-2.40;99.90;;;;;;6127632;23;20477;-73
2022/12/14 17:13:15;;;;;;;32.85;17.02;;;-2.50;99.90;;;;;;6127678;23;20021;-72
2022/12/14 17:16:01;;;;;;;38.00;16.45;;;-2.50;99.90;;;;;;6127928;23;20336;-73